createdAt,value
2023-04-22T00:00:17.137Z,100.00
2023-04-22T00:02:45.747Z,100.00
2023-04-22T00:05:17.067Z,100.00
2023-04-22T00:07:48.854Z,100.00
2023-04-22T00:10:16.798Z,100.00
2023-04-22T00:12:44.705Z,100.00
2023-04-22T00:15:13.212Z,100.00
2023-04-22T00:17:42.790Z,100.00
2023-04-22T00:20:12.703Z,100.00
2023-04-22T00:22:40.652Z,100.00
2023-04-22T00:25:10.695Z,100.00
2023-04-22T00:27:38.595Z,100.00
2023-04-22T00:30:07.669Z,100.00
2023-04-22T00:32:35.591Z,100.00
2023-04-22T00:35:03.531Z,100.00
2023-04-22T00:37:31.506Z,100.00
2023-04-22T00:39:59.410Z,100.00
2023-04-22T00:42:29.286Z,100.00
2023-04-22T00:44:58.175Z,100.00
2023-04-22T00:47:27.997Z,100.00
2023-04-22T00:49:56.008Z,100.00
2023-04-22T00:52:23.954Z,100.00
2023-04-22T00:54:52.648Z,100.00
2023-04-22T00:57:21.205Z,100.00
2023-04-22T00:59:51.012Z,100.00
2023-04-22T01:02:19.362Z,100.00
2023-04-22T01:04:48.118Z,100.00
2023-04-22T01:07:16.077Z,100.00
2023-04-22T01:09:44.521Z,100.00
2023-04-22T01:12:12.622Z,100.00
2023-04-22T01:14:41.036Z,100.00
2023-04-22T01:17:12.124Z,100.00
2023-04-22T01:19:40.506Z,100.00
2023-04-22T01:22:09.512Z,100.00
2023-04-22T01:24:38.957Z,100.00
2023-04-22T01:27:06.892Z,100.00
2023-04-22T01:29:34.956Z,100.00
2023-04-22T01:32:04.129Z,100.00
2023-04-22T01:34:32.782Z,100.00
2023-04-22T01:37:00.717Z,100.00
2023-04-22T01:39:28.894Z,100.00
2023-04-22T01:41:59.765Z,100.00
2023-04-22T01:44:27.948Z,100.00
2023-04-22T01:46:56.060Z,100.00
2023-04-22T01:49:24.012Z,100.00
2023-04-22T01:51:51.906Z,100.00
2023-04-22T01:54:19.860Z,100.00
2023-04-22T01:56:51.910Z,100.00
2023-04-22T01:59:21.583Z,100.00
2023-04-22T02:01:49.644Z,100.00
2023-04-22T02:04:17.646Z,100.00
2023-04-22T02:06:45.610Z,100.00
2023-04-22T02:09:13.528Z,100.00
2023-04-22T02:11:41.464Z,100.00
2023-04-22T02:14:09.444Z,100.00
2023-04-22T02:16:38.759Z,100.00
2023-04-22T02:19:06.676Z,100.00
2023-04-22T02:21:34.670Z,100.00
2023-04-22T02:24:02.624Z,100.00
2023-04-22T02:26:30.896Z,100.00
2023-04-22T02:28:58.848Z,100.00
2023-04-22T02:31:26.905Z,100.00
2023-04-22T02:33:56.256Z,100.00
2023-04-22T02:36:24.147Z,100.00
2023-04-22T02:38:52.075Z,100.00
2023-04-22T02:41:19.987Z,100.00
2023-04-22T02:43:47.904Z,100.00
2023-04-22T02:46:16.698Z,100.00
2023-04-22T02:48:44.787Z,100.00
2023-04-22T02:51:14.161Z,100.00
2023-04-22T02:53:42.199Z,100.00
2023-04-22T02:56:10.231Z,100.00
2023-04-22T02:58:38.168Z,100.00
2023-04-22T03:01:06.224Z,100.00
2023-04-22T03:03:34.401Z,100.00
2023-04-22T03:06:02.407Z,100.00
2023-04-22T03:08:31.711Z,100.00
2023-04-22T03:10:59.610Z,100.00
2023-04-22T03:13:27.594Z,100.00
2023-04-22T03:15:55.506Z,100.00
2023-04-22T03:18:23.442Z,100.00
2023-04-22T03:20:51.451Z,100.00
2023-04-22T03:23:19.373Z,100.00
2023-04-22T03:25:48.676Z,100.00
2023-04-22T03:28:16.611Z,100.00
2023-04-22T03:30:44.517Z,100.00
2023-04-22T03:33:12.644Z,100.00
2023-04-22T03:35:40.557Z,100.00
2023-04-22T03:38:08.527Z,100.00
2023-04-22T03:40:36.581Z,100.00
2023-04-22T03:43:05.837Z,100.00
2023-04-22T03:45:33.899Z,100.00
2023-04-22T03:48:01.894Z,100.00
2023-04-22T03:50:30.139Z,100.00
2023-04-22T03:52:58.051Z,100.00
2023-04-22T03:55:26.083Z,100.00
2023-04-22T03:57:53.995Z,100.00
2023-04-22T04:00:23.343Z,100.00
2023-04-22T04:02:51.381Z,100.00
2023-04-22T04:05:19.777Z,100.00
2023-04-22T04:07:47.966Z,100.00
2023-04-22T04:10:15.899Z,100.00
2023-04-22T04:12:43.794Z,100.00
2023-04-22T04:15:12.797Z,100.00
2023-04-22T04:17:42.496Z,100.00
2023-04-22T04:20:11.278Z,100.00
2023-04-22T04:22:39.237Z,100.00
2023-04-22T04:25:08.215Z,100.00
2023-04-22T04:27:36.103Z,100.00
2023-04-22T04:30:04.874Z,100.00
2023-04-22T04:32:34.416Z,100.00
2023-04-22T04:35:04.797Z,100.00
2023-04-22T04:37:32.735Z,100.00
2023-04-22T04:40:00.636Z,100.00
2023-04-22T04:42:30.470Z,100.00
2023-04-22T04:44:59.613Z,100.00
2023-04-22T04:47:28.541Z,100.00
2023-04-22T04:49:58.665Z,100.00
2023-04-22T04:52:28.203Z,100.00
2023-04-22T04:54:56.266Z,100.00
2023-04-22T04:57:24.179Z,100.00
2023-04-22T04:59:52.071Z,100.00
2023-04-22T05:02:20.164Z,100.00
2023-04-22T05:04:48.393Z,100.00
2023-04-22T05:07:16.576Z,99.72
2023-04-22T05:09:45.875Z,99.05
2023-04-22T05:12:13.770Z,98.11
2023-04-22T05:14:41.973Z,98.41
2023-04-22T05:17:09.920Z,98.87
2023-04-22T05:19:38.102Z,98.02
2023-04-22T05:22:06.200Z,99.82
2023-04-22T05:24:34.138Z,99.00
2023-04-22T05:27:03.694Z,97.76
2023-04-22T05:29:31.734Z,96.53
2023-04-22T05:31:59.674Z,94.87
2023-04-22T05:34:27.594Z,94.83
2023-04-22T05:36:55.841Z,98.97
2023-04-22T05:39:23.786Z,100.00
2023-04-22T05:41:51.712Z,100.00
2023-04-22T05:44:21.010Z,100.00
2023-04-22T05:46:48.947Z,99.62
2023-04-22T05:49:16.898Z,98.61
2023-04-22T05:51:44.803Z,100.00
2023-04-22T05:54:12.700Z,99.49
2023-04-22T05:56:40.679Z,98.16
2023-04-22T05:59:08.596Z,97.62
2023-04-22T06:01:38.420Z,98.49
2023-04-22T06:04:06.646Z,97.14
2023-04-22T06:06:34.855Z,97.21
2023-04-22T06:09:02.877Z,93.59
2023-04-22T06:11:30.844Z,94.44
2023-04-22T06:13:58.824Z,94.08
2023-04-22T06:16:26.820Z,91.95
2023-04-22T06:18:56.104Z,90.23
2023-04-22T06:21:24.188Z,89.26
2023-04-22T06:23:52.124Z,90.25
2023-04-22T06:26:20.161Z,88.97
2023-04-22T06:28:48.069Z,85.62
2023-04-22T06:31:17.607Z,86.30
2023-04-22T06:33:47.507Z,94.04
2023-04-22T06:36:16.826Z,93.87
2023-04-22T06:38:44.793Z,93.30
2023-04-22T06:41:12.678Z,89.54
2023-04-22T06:43:40.686Z,89.53
2023-04-22T06:46:08.686Z,77.30
2023-04-22T06:48:36.697Z,80.17
2023-04-22T06:51:04.874Z,76.45
2023-04-22T06:53:34.177Z,78.67
2023-04-22T06:56:02.150Z,64.92
2023-04-22T06:58:30.095Z,65.10
2023-04-22T07:00:58.028Z,65.53
2023-04-22T07:03:26.116Z,67.85
2023-04-22T07:05:54.313Z,69.66
2023-04-22T07:08:22.275Z,69.11
2023-04-22T07:10:51.612Z,61.10
2023-04-22T07:13:19.522Z,60.96
2023-04-22T07:15:47.720Z,62.25
2023-04-22T07:18:15.684Z,63.21
2023-04-22T07:20:43.602Z,60.72
2023-04-22T07:23:11.515Z,59.89
2023-04-22T07:25:39.407Z,59.79
2023-04-22T07:28:08.822Z,59.21
2023-04-22T07:30:36.756Z,56.84
2023-04-22T07:33:04.871Z,58.68
2023-04-22T07:35:32.966Z,60.33
2023-04-22T07:38:00.892Z,56.08
2023-04-22T07:40:28.996Z,58.36
2023-04-22T07:42:57.044Z,57.84
2023-04-22T07:45:26.466Z,58.99
2023-04-22T07:47:54.403Z,61.62
2023-04-22T07:50:22.463Z,56.87
2023-04-22T07:52:50.429Z,55.51
2023-04-22T07:55:18.412Z,54.95
2023-04-22T07:57:46.416Z,54.20
2023-04-22T08:00:15.763Z,56.05
2023-04-22T08:02:46.499Z,52.32
2023-04-22T08:05:14.659Z,55.40
2023-04-22T08:07:43.167Z,54.85
2023-04-22T08:10:11.749Z,54.65
2023-04-22T08:12:39.719Z,54.94
2023-04-22T08:15:08.626Z,51.62
2023-04-22T08:17:36.652Z,49.66
2023-04-22T08:20:08.910Z,51.71
2023-04-22T08:22:36.944Z,52.74
2023-04-22T08:25:07.755Z,55.09
2023-04-22T08:27:35.942Z,49.26
2023-04-22T08:30:04.040Z,51.98
2023-04-22T08:32:32.079Z,51.39
2023-04-22T08:35:04.820Z,48.49
2023-04-22T08:37:35.591Z,50.11
2023-04-22T08:40:04.877Z,52.75
2023-04-22T08:42:33.369Z,49.83
2023-04-22T08:45:03.210Z,47.99
2023-04-22T08:47:33.554Z,48.83
2023-04-22T08:50:04.243Z,48.52
2023-04-22T08:52:33.586Z,49.00
2023-04-22T08:55:02.984Z,46.64
2023-04-22T08:57:31.546Z,46.65
2023-04-22T09:00:00.911Z,44.64
2023-04-22T09:02:33.263Z,48.37
2023-04-22T09:05:03.649Z,45.24
2023-04-22T09:07:32.522Z,48.89
2023-04-22T09:10:02.480Z,50.77
2023-04-22T09:12:30.385Z,45.92
2023-04-22T09:14:58.527Z,45.21
2023-04-22T09:17:33.430Z,44.89
2023-04-22T09:20:02.679Z,43.16
2023-04-22T09:22:38.230Z,41.62
2023-04-22T09:25:09.538Z,43.15
2023-04-22T09:27:37.574Z,44.67
2023-04-22T09:30:11.390Z,43.55
2023-04-22T09:32:40.863Z,45.51
2023-04-22T09:35:09.519Z,44.29
2023-04-22T09:37:46.689Z,44.71
2023-04-22T09:40:20.094Z,46.22
2023-04-22T09:42:51.970Z,44.70
2023-04-22T09:45:30.867Z,45.98
2023-04-22T09:48:01.395Z,44.36
2023-04-22T09:50:30.170Z,43.16
2023-04-22T09:53:00.372Z,42.22
2023-04-22T09:55:31.180Z,39.50
2023-04-22T09:57:59.484Z,41.83
2023-04-22T10:00:31.974Z,39.95
2023-04-22T10:03:00.458Z,38.52
2023-04-22T10:05:29.676Z,37.86
2023-04-22T10:07:58.333Z,41.56
2023-04-22T10:10:26.813Z,39.77
2023-04-22T10:12:56.403Z,39.34
2023-04-22T10:15:26.915Z,42.42
2023-04-22T10:17:57.019Z,42.96
2023-04-22T10:20:26.816Z,40.36
2023-04-22T10:22:55.450Z,40.15
2023-04-22T10:25:25.686Z,40.34
2023-04-22T10:28:04.403Z,38.70
2023-04-22T10:30:35.245Z,36.94
2023-04-22T10:33:39.177Z,39.63
2023-04-22T10:36:09.744Z,38.98
2023-04-22T10:38:38.155Z,40.23
2023-04-22T10:41:06.584Z,39.46
2023-04-22T10:43:47.834Z,39.13
2023-04-22T10:46:53.603Z,40.28
2023-04-22T10:49:23.196Z,37.87
2023-04-22T10:51:52.355Z,40.54
2023-04-22T10:54:56.246Z,43.80
2023-04-22T10:57:24.616Z,39.33
2023-04-22T10:59:56.802Z,39.74
2023-04-22T11:02:26.349Z,41.63
2023-04-22T11:05:21.069Z,40.51
2023-04-22T11:07:50.915Z,42.81
2023-04-22T11:10:43.057Z,42.88
2023-04-22T11:13:14.459Z,39.14
2023-04-22T11:15:46.003Z,41.57
2023-04-22T11:18:21.122Z,42.55
2023-04-22T11:20:50.858Z,44.29
2023-04-22T11:23:21.286Z,42.26
2023-04-22T11:25:49.435Z,40.25
2023-04-22T11:28:18.948Z,40.13
2023-04-22T11:30:49.198Z,41.00
2023-04-22T11:33:17.980Z,40.35
2023-04-22T11:35:46.237Z,44.34
2023-04-22T11:38:14.755Z,42.19
2023-04-22T11:40:46.540Z,43.32
2023-04-22T11:43:15.505Z,42.22
2023-04-22T11:45:43.793Z,44.51
2023-04-22T11:48:13.630Z,42.39
2023-04-22T11:50:44.378Z,42.57
2023-04-22T11:53:17.066Z,42.82
2023-04-22T11:55:47.490Z,43.24
2023-04-22T11:58:18.044Z,43.35
2023-04-22T12:00:47.450Z,43.80
2023-04-22T12:03:18.574Z,40.32
2023-04-22T12:05:48.730Z,39.98
2023-04-22T12:08:18.912Z,39.30
2023-04-22T12:10:48.456Z,43.25
2023-04-22T12:13:21.376Z,41.92
2023-04-22T12:15:50.148Z,40.26
2023-04-22T12:18:29.908Z,40.58
2023-04-22T12:21:01.873Z,40.07
2023-04-22T12:23:29.845Z,42.57
2023-04-22T12:25:58.292Z,41.00
2023-04-22T12:28:26.454Z,39.82
2023-04-22T12:30:54.636Z,45.82
2023-04-22T12:33:24.437Z,40.60
2023-04-22T12:35:53.197Z,40.27
2023-04-22T12:38:21.236Z,38.93
2023-04-22T12:40:49.333Z,40.72
2023-04-22T12:43:17.292Z,41.10
2023-04-22T12:45:45.621Z,40.17
2023-04-22T12:48:13.884Z,41.28
2023-04-22T12:50:43.521Z,41.56
2023-04-22T12:53:11.769Z,42.12
2023-04-22T12:55:39.867Z,42.37
2023-04-22T12:58:07.836Z,40.35
2023-04-22T13:00:36.098Z,43.17
2023-04-22T13:03:04.212Z,39.84
2023-04-22T13:05:32.465Z,37.31
2023-04-22T13:08:07.309Z,37.41
2023-04-22T13:10:36.578Z,38.62
2023-04-22T13:13:17.767Z,38.18
2023-04-22T13:15:47.945Z,40.92
2023-04-22T13:18:17.200Z,43.93
2023-04-22T13:20:45.210Z,40.18
2023-04-22T13:23:15.663Z,39.14
2023-04-22T13:25:43.698Z,38.61
2023-04-22T13:28:12.584Z,40.36
2023-04-22T13:30:41.086Z,38.58
2023-04-22T13:33:09.188Z,39.04
2023-04-22T13:35:37.691Z,41.83
2023-04-22T13:38:07.497Z,42.85
2023-04-22T13:40:36.980Z,41.07
2023-04-22T13:43:05.287Z,42.74
2023-04-22T13:45:33.347Z,41.46
2023-04-22T13:48:01.465Z,41.49
2023-04-22T13:50:29.499Z,41.89
2023-04-22T13:52:57.518Z,43.01
2023-04-22T13:55:26.793Z,43.38
2023-04-22T13:57:56.247Z,44.21
2023-04-22T14:00:24.272Z,42.37
2023-04-22T14:02:52.421Z,42.38
2023-04-22T14:05:20.880Z,44.51
2023-04-22T14:07:49.350Z,44.04
2023-04-22T14:10:20.374Z,44.11
2023-04-22T14:12:48.418Z,40.99
2023-04-22T14:15:18.045Z,40.28
2023-04-22T14:17:49.427Z,42.77
2023-04-22T14:20:17.755Z,42.39
2023-04-22T14:22:46.366Z,39.50
2023-04-22T14:25:14.440Z,41.69
2023-04-22T14:27:42.523Z,45.53
2023-04-22T14:30:11.859Z,42.58
2023-04-22T14:32:41.630Z,43.75
2023-04-22T14:35:10.054Z,42.85
2023-04-22T14:37:39.234Z,41.80
2023-04-22T14:40:08.686Z,43.06
2023-04-22T14:42:37.084Z,42.85
2023-04-22T14:45:05.708Z,41.49
2023-04-22T14:47:33.711Z,44.31
2023-04-22T14:50:03.364Z,42.68
2023-04-22T14:52:33.075Z,42.55
2023-04-22T14:55:09.085Z,43.25
2023-04-22T14:57:47.891Z,42.94
2023-04-22T15:00:16.722Z,42.25
2023-04-22T15:02:46.020Z,41.61
2023-04-22T15:05:15.986Z,42.84
2023-04-22T15:07:44.237Z,41.97
2023-04-22T15:10:12.683Z,42.60
2023-04-22T15:12:41.855Z,44.08
2023-04-22T15:15:13.361Z,44.17
2023-04-22T15:17:41.948Z,43.68
2023-04-22T15:20:11.040Z,45.37
2023-04-22T15:22:42.303Z,44.61
2023-04-22T15:25:11.497Z,43.57
2023-04-22T15:27:40.148Z,44.77
2023-04-22T15:30:10.970Z,44.13
2023-04-22T15:32:40.293Z,44.80
2023-04-22T15:35:09.429Z,44.80
2023-04-22T15:37:37.780Z,44.60
2023-04-22T15:40:10.159Z,44.95
2023-04-22T15:42:38.242Z,43.85
2023-04-22T15:45:07.652Z,45.12
2023-04-22T15:47:36.702Z,45.28
2023-04-22T15:50:09.078Z,46.06
2023-04-22T15:52:38.998Z,45.36
2023-04-22T15:55:09.459Z,46.43
2023-04-22T15:57:37.613Z,47.33
2023-04-22T16:00:12.599Z,48.14
2023-04-22T16:02:42.724Z,47.77
2023-04-22T16:05:11.765Z,47.20
2023-04-22T16:07:40.358Z,48.64
2023-04-22T16:10:11.360Z,47.47
2023-04-22T16:12:39.276Z,47.87
2023-04-22T16:15:08.862Z,48.96
2023-04-22T16:17:36.927Z,47.94
2023-04-22T16:20:06.131Z,48.46
2023-04-22T16:22:34.539Z,48.67
2023-04-22T16:25:02.971Z,49.52
2023-04-22T16:27:32.635Z,50.41
2023-04-22T16:30:00.636Z,49.21
2023-04-22T16:32:28.802Z,49.73
2023-04-22T16:34:57.155Z,48.52
2023-04-22T16:37:25.305Z,49.03
2023-04-22T16:39:53.282Z,51.15
2023-04-22T16:42:21.564Z,48.94
2023-04-22T16:44:51.525Z,49.39
2023-04-22T16:47:19.900Z,50.21
2023-04-22T16:49:48.014Z,54.05
2023-04-22T16:52:16.136Z,57.04
2023-04-22T16:54:44.064Z,59.28
2023-04-22T16:57:12.538Z,61.81
2023-04-22T16:59:40.607Z,62.18
2023-04-22T17:02:10.400Z,64.61
2023-04-22T17:04:38.390Z,65.41
2023-04-22T17:07:06.319Z,66.54
2023-04-22T17:09:34.239Z,67.32
2023-04-22T17:12:02.208Z,68.48
2023-04-22T17:14:30.150Z,68.43
2023-04-22T17:16:58.073Z,68.16
2023-04-22T17:19:27.941Z,68.11
2023-04-22T17:21:56.053Z,67.93
2023-04-22T17:24:24.939Z,68.74
2023-04-22T17:26:52.956Z,68.59
2023-04-22T17:29:21.953Z,69.00
2023-04-22T17:31:50.319Z,69.60
2023-04-22T17:34:18.282Z,70.60
2023-04-22T17:36:47.627Z,70.79
2023-04-22T17:39:15.581Z,71.51
2023-04-22T17:41:43.597Z,71.52
2023-04-22T17:44:11.502Z,70.63
2023-04-22T17:46:41.246Z,70.45
2023-04-22T17:49:09.265Z,71.07
2023-04-22T17:51:37.234Z,71.03
2023-04-22T17:54:07.164Z,70.65
2023-04-22T17:56:35.463Z,71.36
2023-04-22T17:59:03.378Z,73.26
2023-04-22T18:01:31.465Z,72.53
2023-04-22T18:03:59.942Z,72.55
2023-04-22T18:06:29.057Z,73.38
2023-04-22T18:08:57.172Z,75.03
2023-04-22T18:11:27.989Z,73.93
2023-04-22T18:13:56.159Z,73.99
2023-04-22T18:16:24.200Z,74.77
2023-04-22T18:18:52.313Z,75.54
2023-04-22T18:21:20.509Z,76.08
2023-04-22T18:23:48.606Z,76.32
2023-04-22T18:26:16.764Z,75.93
2023-04-22T18:28:46.091Z,76.00
2023-04-22T18:31:14.101Z,75.94
2023-04-22T18:33:42.023Z,76.03
2023-04-22T18:36:10.216Z,75.88
2023-04-22T18:38:38.905Z,76.01
2023-04-22T18:41:07.057Z,76.17
2023-04-22T18:43:34.998Z,77.25
2023-04-22T18:46:04.350Z,78.88
2023-04-22T18:48:32.381Z,79.73
2023-04-22T18:51:00.326Z,78.67
2023-04-22T18:53:28.272Z,77.47
2023-04-22T18:55:56.469Z,78.33
2023-04-22T18:58:24.492Z,77.10
2023-04-22T19:00:53.015Z,78.41
2023-04-22T19:03:22.536Z,77.97
2023-04-22T19:05:51.140Z,78.60
2023-04-22T19:08:19.070Z,79.56
2023-04-22T19:10:47.051Z,79.19
2023-04-22T19:13:28.626Z,78.94
2023-04-22T19:15:58.042Z,79.43
2023-04-22T19:18:27.431Z,79.51
2023-04-22T19:20:55.480Z,79.56
2023-04-22T19:23:23.501Z,79.90
2023-04-22T19:25:51.666Z,82.21
2023-04-22T19:28:19.576Z,83.16
2023-04-22T19:30:47.660Z,82.42
2023-04-22T19:33:16.016Z,82.87
2023-04-22T19:35:45.814Z,84.01
2023-04-22T19:38:16.386Z,83.27
2023-04-22T19:40:44.331Z,81.89
2023-04-22T19:43:12.344Z,80.93
2023-04-22T19:45:40.252Z,82.62
2023-04-22T19:48:09.193Z,84.16
2023-04-22T19:50:37.374Z,84.21
2023-04-22T19:53:08.321Z,86.70
2023-04-22T19:55:37.516Z,87.21
2023-04-22T19:58:06.037Z,86.79
2023-04-22T20:00:35.299Z,86.57
2023-04-22T20:03:04.303Z,86.79
2023-04-22T20:05:32.849Z,86.51
2023-04-22T20:08:01.998Z,87.20
2023-04-22T20:10:31.792Z,87.82
2023-04-22T20:13:00.571Z,87.07
2023-04-22T20:15:28.798Z,87.57
2023-04-22T20:17:57.129Z,87.63
2023-04-22T20:20:25.690Z,87.46
2023-04-22T20:22:55.871Z,88.65
2023-04-22T20:25:24.950Z,87.73
2023-04-22T20:27:54.604Z,87.24
2023-04-22T20:30:22.701Z,87.90
2023-04-22T20:32:51.617Z,87.89
2023-04-22T20:35:20.189Z,87.13
2023-04-22T20:37:50.902Z,88.78
2023-04-22T20:40:19.166Z,87.89
2023-04-22T20:42:47.054Z,86.17
2023-04-22T20:45:17.963Z,88.54
2023-04-22T20:47:46.272Z,89.80
2023-04-22T20:50:14.862Z,88.74
2023-04-22T20:52:43.382Z,88.31
2023-04-22T20:55:11.483Z,91.13
2023-04-22T20:57:39.408Z,88.59
2023-04-22T21:00:10.258Z,88.75
2023-04-22T21:02:41.151Z,87.98
2023-04-22T21:05:11.982Z,88.41
2023-04-22T21:07:40.856Z,89.75
2023-04-22T21:10:10.348Z,89.45
2023-04-22T21:12:39.277Z,91.18
2023-04-22T21:15:08.845Z,91.03
2023-04-22T21:17:39.915Z,90.15
2023-04-22T21:20:11.543Z,90.21
2023-04-22T21:22:43.594Z,89.59
2023-04-22T21:25:15.974Z,89.36
2023-04-22T21:27:44.426Z,90.24
2023-04-22T21:30:13.846Z,90.19
2023-04-22T21:32:42.408Z,89.25
2023-04-22T21:35:12.351Z,89.36
2023-04-22T21:37:40.316Z,89.66
2023-04-22T21:40:13.068Z,89.10
2023-04-22T21:42:41.723Z,89.17
2023-04-22T21:45:10.324Z,90.20
2023-04-22T21:47:38.230Z,89.95
2023-04-22T21:50:07.304Z,89.98
2023-04-22T21:52:36.753Z,92.21
2023-04-22T21:55:05.009Z,93.05
2023-04-22T21:57:32.959Z,93.72
2023-04-22T22:00:01.279Z,92.00
2023-04-22T22:02:29.352Z,93.74
2023-04-22T22:04:57.332Z,92.83
2023-04-22T22:07:26.946Z,91.98
2023-04-22T22:09:56.224Z,91.82
2023-04-22T22:12:24.299Z,91.77
2023-04-22T22:14:52.223Z,91.50
2023-04-22T22:17:20.671Z,90.95
2023-04-22T22:19:48.763Z,91.39
2023-04-22T22:22:16.670Z,91.32
2023-04-22T22:24:45.590Z,91.68
2023-04-22T22:27:15.069Z,92.10
2023-04-22T22:29:42.982Z,91.11
2023-04-22T22:32:10.939Z,91.75
2023-04-22T22:34:39.197Z,91.34
2023-04-22T22:37:07.407Z,91.58
2023-04-22T22:39:35.710Z,92.79
2023-04-22T22:42:03.646Z,92.04
2023-04-22T22:44:32.952Z,93.78
2023-04-22T22:47:00.888Z,94.29
2023-04-22T22:49:28.868Z,93.40
2023-04-22T22:51:56.892Z,93.14
2023-04-22T22:54:24.801Z,93.22
2023-04-22T22:56:52.783Z,93.19
2023-04-22T22:59:20.724Z,93.35
2023-04-22T23:01:50.515Z,92.94
2023-04-22T23:04:18.682Z,93.74
2023-04-22T23:06:46.675Z,93.53
2023-04-22T23:09:18.851Z,93.25
2023-04-22T23:11:48.397Z,92.84
2023-04-22T23:14:17.909Z,92.89
2023-04-22T23:16:46.349Z,94.07
2023-04-22T23:19:17.119Z,93.67
2023-04-22T23:21:46.124Z,93.33
2023-04-22T23:24:16.158Z,92.83
2023-04-22T23:26:44.379Z,93.29
2023-04-22T23:29:12.801Z,94.79
2023-04-22T23:31:42.872Z,96.77
2023-04-22T23:34:11.042Z,97.99
2023-04-22T23:36:40.681Z,97.77
2023-04-22T23:39:09.768Z,96.81
2023-04-22T23:41:38.151Z,96.88
2023-04-22T23:44:06.498Z,97.59
2023-04-22T23:46:34.503Z,96.49
2023-04-22T23:49:03.007Z,96.03
2023-04-22T23:51:30.972Z,96.72
2023-04-22T23:54:00.304Z,97.06
2023-04-22T23:56:28.779Z,96.68
2023-04-22T23:58:57.385Z,97.36
